createdAt,value
2022-10-18T00:00:06.682Z,5.48
2022-10-18T00:02:33.474Z,5.61
2022-10-18T00:05:00.301Z,5.47
2022-10-18T00:07:26.901Z,5.49
2022-10-18T00:09:54.227Z,5.49
2022-10-18T00:12:20.796Z,5.61
2022-10-18T00:14:50.816Z,5.56
2022-10-18T00:17:17.732Z,5.59
2022-10-18T00:19:44.522Z,5.48
2022-10-18T00:22:11.144Z,5.44
2022-10-18T00:24:37.994Z,5.36
2022-10-18T00:27:05.073Z,5.39
2022-10-18T00:29:31.666Z,5.30
2022-10-18T00:31:58.250Z,5.24
2022-10-18T00:34:24.945Z,5.13
2022-10-18T00:36:51.541Z,5.22
2022-10-18T00:39:21.406Z,5.18
2022-10-18T00:41:49.236Z,5.15
2022-10-18T00:44:15.791Z,5.18
2022-10-18T00:46:45.610Z,5.13
2022-10-18T00:49:22.541Z,5.18
2022-10-18T00:51:59.220Z,5.02
2022-10-18T00:54:28.241Z,4.78
2022-10-18T00:56:54.975Z,4.63
2022-10-18T00:59:22.501Z,4.29
2022-10-18T01:01:49.258Z,4.36
2022-10-18T01:04:17.795Z,4.29
2022-10-18T01:07:02.806Z,4.36
2022-10-18T01:09:29.401Z,4.35
2022-10-18T01:12:01.380Z,4.20
2022-10-18T01:14:46.734Z,4.00
2022-10-18T01:17:44.169Z,4.15
2022-10-18T01:20:36.082Z,4.09
2022-10-18T01:23:05.768Z,3.94
2022-10-18T01:25:41.459Z,3.76
2022-10-18T01:28:19.654Z,3.51
2022-10-18T01:30:54.791Z,3.21
2022-10-18T01:33:27.616Z,3.24
2022-10-18T01:36:14.976Z,3.25
2022-10-18T01:38:46.081Z,2.88
2022-10-18T01:41:15.843Z,2.86
2022-10-18T01:43:45.841Z,2.94
2022-10-18T01:46:18.755Z,3.05
2022-10-18T01:48:46.456Z,3.02
2022-10-18T01:51:13.144Z,3.02
2022-10-18T01:53:39.907Z,3.04
2022-10-18T01:56:06.780Z,3.26
2022-10-18T01:58:48.904Z,3.36
2022-10-18T02:01:24.960Z,3.40
2022-10-18T02:03:58.459Z,3.34
2022-10-18T02:06:34.919Z,3.43
2022-10-18T02:09:11.122Z,3.57
2022-10-18T02:11:40.223Z,3.59
2022-10-18T02:14:12.796Z,3.57
2022-10-18T02:16:45.229Z,3.80
2022-10-18T02:21:53.180Z,3.44
2022-10-18T02:24:23.858Z,3.75
2022-10-18T02:26:50.677Z,3.80
2022-10-18T02:29:17.791Z,3.45
2022-10-18T02:31:50.151Z,3.47
2022-10-18T02:34:28.019Z,3.87
2022-10-18T02:36:58.272Z,3.78
2022-10-18T02:39:42.886Z,3.79
2022-10-18T02:42:11.109Z,3.75
2022-10-18T02:44:38.659Z,3.78
2022-10-18T02:47:06.839Z,3.67
2022-10-18T02:49:33.747Z,3.71
2022-10-18T02:52:00.581Z,3.62
2022-10-18T02:54:27.304Z,3.58
2022-10-18T02:56:53.899Z,3.65
2022-10-18T02:59:20.620Z,3.58
2022-10-18T03:01:47.417Z,3.78
2022-10-18T03:04:14.183Z,3.65
2022-10-18T03:06:40.917Z,3.68
2022-10-18T03:09:07.789Z,3.77
2022-10-18T03:11:34.537Z,3.89
2022-10-18T03:14:01.266Z,3.94
2022-10-18T03:16:28.009Z,3.95
2022-10-18T03:18:54.654Z,3.99
2022-10-18T03:21:21.550Z,3.93
2022-10-18T03:23:48.128Z,3.93
2022-10-18T03:26:14.956Z,3.75
2022-10-18T03:28:42.739Z,3.91
2022-10-18T03:31:09.378Z,3.92
2022-10-18T03:33:35.963Z,3.89
2022-10-18T03:36:02.702Z,3.86
2022-10-18T03:38:29.256Z,3.75
2022-10-18T03:40:55.930Z,3.65
2022-10-18T03:43:23.079Z,3.61
2022-10-18T03:45:50.057Z,3.66
2022-10-18T03:48:16.673Z,3.63
2022-10-18T03:50:44.793Z,3.58
2022-10-18T03:53:11.531Z,3.61
2022-10-18T03:55:38.824Z,3.54
2022-10-18T03:58:05.860Z,3.64
2022-10-18T04:00:32.952Z,3.60
2022-10-18T04:02:59.530Z,3.58
2022-10-18T04:05:28.220Z,3.52
2022-10-18T04:07:55.081Z,3.65
2022-10-18T04:10:22.143Z,3.58
2022-10-18T04:12:49.348Z,3.60
2022-10-18T04:15:16.171Z,3.63
2022-10-18T04:17:42.846Z,3.59
2022-10-18T04:20:10.367Z,3.69
2022-10-18T04:22:37.127Z,3.64
2022-10-18T04:25:04.322Z,3.61
2022-10-18T04:27:31.507Z,3.61
2022-10-18T04:29:58.669Z,3.63
2022-10-18T04:32:27.854Z,3.51
2022-10-18T04:34:54.502Z,3.49
2022-10-18T04:37:21.100Z,3.31
2022-10-18T04:39:51.320Z,3.34
2022-10-18T04:42:20.562Z,3.43
2022-10-18T04:44:47.383Z,3.31
2022-10-18T04:47:14.038Z,3.43
2022-10-18T04:49:40.726Z,3.40
2022-10-18T04:52:07.734Z,3.42
2022-10-18T04:54:34.510Z,3.38
2022-10-18T04:57:01.229Z,3.42
2022-10-18T04:59:27.990Z,3.39
2022-10-18T05:01:54.845Z,3.45
2022-10-18T05:04:21.560Z,3.52
2022-10-18T05:06:48.433Z,3.58
2022-10-18T05:09:15.250Z,3.80
2022-10-18T05:11:41.928Z,4.27
2022-10-18T05:14:10.292Z,4.84
2022-10-18T05:16:37.239Z,5.41
2022-10-18T05:19:05.624Z,6.18
2022-10-18T05:21:32.887Z,7.07
2022-10-18T05:23:59.759Z,7.92
2022-10-18T05:26:26.408Z,8.77
2022-10-18T05:28:53.209Z,9.56
2022-10-18T05:31:20.004Z,10.15
2022-10-18T05:33:46.649Z,10.24
2022-10-18T05:36:13.533Z,10.14
2022-10-18T05:38:45.455Z,9.66
2022-10-18T05:41:13.003Z,9.42
2022-10-18T05:43:40.938Z,9.85
2022-10-18T05:46:13.561Z,10.23
2022-10-18T05:48:43.383Z,10.51
2022-10-18T05:51:10.000Z,10.67
2022-10-18T05:53:37.876Z,11.02
2022-10-18T05:56:05.858Z,11.26
2022-10-18T05:58:32.589Z,11.44
2022-10-18T06:01:02.887Z,11.42
2022-10-18T06:03:31.033Z,11.48
2022-10-18T06:06:09.540Z,11.17
2022-10-18T06:08:37.887Z,10.51
2022-10-18T06:11:16.770Z,10.42
2022-10-18T06:13:45.772Z,10.09
2022-10-18T06:16:14.376Z,9.87
2022-10-18T06:18:42.048Z,9.69
2022-10-18T06:21:09.531Z,9.56
2022-10-18T06:23:36.244Z,9.50
2022-10-18T06:26:06.638Z,8.97
2022-10-18T06:28:35.878Z,8.92
2022-10-18T06:31:03.058Z,8.72
2022-10-18T06:33:31.170Z,8.74
2022-10-18T06:36:02.514Z,8.54
2022-10-18T06:38:30.388Z,8.52
2022-10-18T06:40:58.238Z,8.30
2022-10-18T06:43:25.315Z,8.28
2022-10-18T06:45:52.692Z,8.51
2022-10-18T06:50:54.763Z,8.82
2022-10-18T06:53:21.582Z,9.03
2022-10-18T06:55:48.276Z,9.02
2022-10-18T06:58:15.284Z,8.98
2022-10-18T07:00:42.293Z,8.93
2022-10-18T07:03:08.992Z,9.19
2022-10-18T07:05:35.641Z,9.23
2022-10-18T07:08:02.325Z,9.48
2022-10-18T07:10:29.015Z,9.39
2022-10-18T07:13:08.031Z,9.40
2022-10-18T07:15:42.850Z,9.22
2022-10-18T07:18:09.462Z,9.20
2022-10-18T07:20:36.080Z,9.04
2022-10-18T07:23:02.748Z,8.85
2022-10-18T07:25:31.337Z,8.85
2022-10-18T07:27:57.968Z,8.87
2022-10-18T07:30:24.815Z,8.87
2022-10-18T07:32:52.176Z,8.92
2022-10-18T07:35:19.053Z,9.12
2022-10-18T07:37:45.677Z,9.07
2022-10-18T07:40:12.699Z,9.27
2022-10-18T07:42:39.302Z,9.54
2022-10-18T07:45:06.187Z,9.56
2022-10-18T07:47:35.211Z,9.53
2022-10-18T07:50:02.226Z,9.41
2022-10-18T07:52:29.033Z,9.60
2022-10-18T07:54:55.629Z,9.72
2022-10-18T07:57:23.442Z,9.69
2022-10-18T07:59:56.174Z,9.83
2022-10-18T08:02:24.116Z,10.21
2022-10-18T08:04:50.927Z,10.41
2022-10-18T08:07:17.508Z,10.64
2022-10-18T08:09:44.183Z,10.69
2022-10-18T08:12:11.145Z,10.70
2022-10-18T08:14:37.755Z,10.81
2022-10-18T08:17:04.316Z,10.99
2022-10-18T08:19:30.971Z,11.09
2022-10-18T08:21:57.657Z,11.29
2022-10-18T08:24:24.349Z,11.42
2022-10-18T08:26:51.220Z,11.29
2022-10-18T08:29:23.370Z,11.62
2022-10-18T08:31:52.532Z,11.78
2022-10-18T08:34:20.001Z,11.73
2022-10-18T08:36:47.127Z,11.93
2022-10-18T08:39:13.816Z,12.21
2022-10-18T08:42:00.025Z,11.99
2022-10-18T08:44:33.850Z,12.19
2022-10-18T08:47:07.588Z,12.19
2022-10-18T08:49:47.322Z,12.67
2022-10-18T08:52:28.366Z,12.73
2022-10-18T08:55:04.590Z,12.86
2022-10-18T08:57:32.045Z,13.30
2022-10-18T08:59:59.091Z,13.61
2022-10-18T09:02:47.339Z,13.97
2022-10-18T09:05:28.293Z,14.15
2022-10-18T09:08:11.526Z,14.47
2022-10-18T09:10:41.338Z,14.64
2022-10-18T09:13:13.088Z,14.82
2022-10-18T09:16:15.815Z,14.32
2022-10-18T09:18:48.599Z,14.56
2022-10-18T09:21:15.139Z,14.65
2022-10-18T09:23:48.304Z,14.61
2022-10-18T09:26:20.947Z,14.98
2022-10-18T09:29:38.640Z,15.21
2022-10-18T09:32:27.879Z,15.34
2022-10-18T09:35:06.090Z,15.41
2022-10-18T09:37:34.653Z,15.54
2022-10-18T09:40:19.401Z,15.78
2022-10-18T09:42:55.621Z,16.05
2022-10-18T09:45:37.836Z,16.12
2022-10-18T09:48:12.488Z,16.19
2022-10-18T09:50:48.924Z,16.59
2022-10-18T09:53:45.663Z,16.63
2022-10-18T09:56:17.670Z,16.30
2022-10-18T09:58:46.540Z,16.17
2022-10-18T10:01:16.565Z,16.46
2022-10-18T10:03:43.290Z,16.48
2022-10-18T10:06:12.754Z,16.43
2022-10-18T10:08:44.016Z,16.91
2022-10-18T10:11:47.284Z,17.18
2022-10-18T10:14:26.542Z,17.09
2022-10-18T10:17:05.970Z,16.35
2022-10-18T10:19:52.260Z,16.32
2022-10-18T10:22:27.907Z,16.65
2022-10-18T10:24:55.364Z,17.21
2022-10-18T10:27:27.783Z,17.16
2022-10-18T10:29:57.663Z,17.69
2022-10-18T10:32:29.195Z,17.54
2022-10-18T10:34:56.455Z,17.36
2022-10-18T10:37:23.155Z,17.27
2022-10-18T10:40:17.708Z,17.48
2022-10-18T10:43:36.397Z,17.40
2022-10-18T10:46:06.640Z,17.69
2022-10-18T10:49:08.479Z,17.84
2022-10-18T10:51:43.824Z,17.48
2022-10-18T10:54:20.506Z,17.95
2022-10-18T10:57:12.874Z,18.05
2022-10-18T10:59:39.290Z,18.59
2022-10-18T11:02:18.173Z,18.60
2022-10-18T11:04:47.556Z,18.94
2022-10-18T11:07:27.848Z,19.39
2022-10-18T11:10:00.215Z,19.74
2022-10-18T11:12:50.707Z,19.44
2022-10-18T11:15:19.570Z,19.63
2022-10-18T11:17:57.723Z,19.92
2022-10-18T11:20:45.499Z,20.16
2022-10-18T11:23:16.842Z,20.18
2022-10-18T11:26:09.195Z,19.85
2022-10-18T11:28:43.566Z,19.75
2022-10-18T11:31:28.380Z,19.72
2022-10-18T11:34:10.558Z,19.32
2022-10-18T11:36:56.568Z,19.41
2022-10-18T11:39:41.355Z,19.50
2022-10-18T11:42:19.374Z,19.65
2022-10-18T11:45:15.124Z,19.76
2022-10-18T11:48:15.643Z,19.57
2022-10-18T11:50:51.788Z,19.45
2022-10-18T11:53:50.959Z,19.79
2022-10-18T11:56:48.399Z,20.07
2022-10-18T11:59:38.634Z,20.17
2022-10-18T12:02:20.281Z,20.28
2022-10-18T12:04:58.479Z,20.08
2022-10-18T12:07:56.944Z,20.24
2022-10-18T12:10:37.745Z,19.94
2022-10-18T12:13:18.761Z,20.21
2022-10-18T12:15:46.845Z,20.46
2022-10-18T12:18:21.702Z,20.33
2022-10-18T12:20:55.037Z,20.10
2022-10-18T12:23:45.124Z,20.16
2022-10-18T12:26:12.247Z,20.04
2022-10-18T12:29:03.590Z,19.84
2022-10-18T12:31:45.611Z,19.46
2022-10-18T12:34:30.302Z,19.35
2022-10-18T12:37:08.826Z,19.52
2022-10-18T12:39:43.617Z,19.65
2022-10-18T12:42:20.681Z,19.83
2022-10-18T12:44:47.926Z,20.07
2022-10-18T12:47:25.593Z,20.33
2022-10-18T12:50:05.396Z,20.63
2022-10-18T12:52:37.303Z,20.73
2022-10-18T12:55:12.779Z,20.90
2022-10-18T12:57:54.496Z,20.92
2022-10-18T13:00:30.578Z,20.97
2022-10-18T13:03:09.373Z,20.92
2022-10-18T13:05:53.398Z,20.68
2022-10-18T13:08:38.412Z,20.61
2022-10-18T13:11:10.942Z,20.43
2022-10-18T13:14:10.904Z,20.26
2022-10-18T13:16:47.741Z,20.36
2022-10-18T13:19:32.229Z,20.72
2022-10-18T13:22:34.298Z,20.63
2022-10-18T13:25:21.437Z,20.24
2022-10-18T13:27:53.170Z,20.38
2022-10-18T13:30:32.363Z,20.43
2022-10-18T13:32:58.914Z,20.61
2022-10-18T13:35:52.789Z,20.98
2022-10-18T13:38:34.598Z,20.63
2022-10-18T13:41:04.001Z,20.42
2022-10-18T13:43:53.089Z,20.68
2022-10-18T13:46:45.624Z,20.55
2022-10-18T13:49:40.470Z,20.41
2022-10-18T13:52:32.381Z,20.56
2022-10-18T13:55:32.995Z,20.43
2022-10-18T13:58:48.927Z,20.45
2022-10-18T14:01:53.288Z,20.54
2022-10-18T14:04:42.577Z,20.57
2022-10-18T14:07:11.734Z,20.47
2022-10-18T14:10:05.000Z,20.41
2022-10-18T14:12:43.668Z,20.58
2022-10-18T14:15:21.208Z,20.52
2022-10-18T14:18:04.056Z,20.56
2022-10-18T14:20:49.359Z,20.72
2022-10-18T14:23:35.190Z,20.72
2022-10-18T14:26:12.301Z,20.95
2022-10-18T14:28:58.558Z,21.14
2022-10-18T14:31:25.972Z,20.70
2022-10-18T14:33:57.614Z,20.76
2022-10-18T14:36:27.992Z,20.67
2022-10-18T14:38:56.190Z,20.58
2022-10-18T14:41:27.463Z,20.29
2022-10-18T14:44:18.669Z,20.23
2022-10-18T14:46:51.502Z,20.20
2022-10-18T14:49:20.446Z,20.16
2022-10-18T14:51:51.605Z,20.09
2022-10-18T14:54:32.423Z,19.95
2022-10-18T14:57:01.728Z,19.93
2022-10-18T14:59:35.126Z,19.93
2022-10-18T15:02:15.226Z,19.82
2022-10-18T15:04:45.460Z,19.77
2022-10-18T15:07:17.895Z,19.65
2022-10-18T15:09:45.962Z,19.57
2022-10-18T15:12:16.233Z,19.56
2022-10-18T15:14:44.247Z,19.25
2022-10-18T15:17:26.586Z,19.32
2022-10-18T15:20:01.852Z,19.06
2022-10-18T15:22:33.565Z,18.75
2022-10-18T15:25:11.613Z,18.78
2022-10-18T15:27:40.058Z,18.41
2022-10-18T15:30:11.425Z,18.03
2022-10-18T15:32:40.618Z,17.80
2022-10-18T15:35:26.119Z,17.56
2022-10-18T15:37:57.332Z,17.27
2022-10-18T15:40:24.626Z,17.21
2022-10-18T15:43:05.952Z,16.90
2022-10-18T15:48:32.877Z,16.52
2022-10-18T15:51:04.804Z,16.40
2022-10-18T15:53:48.596Z,16.14
2022-10-18T15:56:27.911Z,16.15
2022-10-18T15:59:00.208Z,15.93
2022-10-18T16:01:35.691Z,15.88
2022-10-18T16:04:08.974Z,15.68
2022-10-18T16:06:38.816Z,15.60
2022-10-18T16:09:05.938Z,15.53
2022-10-18T16:11:33.284Z,15.43
2022-10-18T16:14:00.635Z,15.36
2022-10-18T16:16:29.018Z,15.28
2022-10-18T16:18:56.566Z,15.22
2022-10-18T16:21:32.842Z,14.92
2022-10-18T16:24:00.117Z,14.73
2022-10-18T16:26:27.281Z,14.57
2022-10-18T16:28:55.130Z,14.66
2022-10-18T16:31:27.577Z,14.54
2022-10-18T16:33:55.507Z,14.48
2022-10-18T16:36:29.839Z,14.32
2022-10-18T16:38:57.932Z,14.34
2022-10-18T16:41:25.024Z,14.19
2022-10-18T16:43:51.706Z,14.26
2022-10-18T16:46:30.731Z,14.09
2022-10-18T16:48:57.781Z,13.81
2022-10-18T16:51:25.269Z,13.67
2022-10-18T16:53:58.115Z,13.70
2022-10-18T16:56:28.368Z,13.61
2022-10-18T16:58:55.169Z,13.73
2022-10-18T17:01:23.954Z,13.61
2022-10-18T17:03:52.276Z,13.59
2022-10-18T17:06:23.705Z,13.37
2022-10-18T17:08:50.839Z,13.50
2022-10-18T17:11:20.185Z,13.45
2022-10-18T17:13:47.170Z,13.36
2022-10-18T17:19:03.214Z,13.23
2022-10-18T17:21:30.661Z,13.16
2022-10-18T17:24:04.556Z,13.20
2022-10-18T17:26:31.575Z,13.04
2022-10-18T17:29:01.335Z,12.98
2022-10-18T17:31:29.742Z,12.97
2022-10-18T17:33:58.405Z,13.00
2022-10-18T17:36:25.309Z,13.02
2022-10-18T17:38:53.610Z,12.97
2022-10-18T17:41:20.814Z,12.98
2022-10-18T17:43:48.674Z,12.87
2022-10-18T17:46:16.468Z,12.92
2022-10-18T17:48:43.540Z,12.94
2022-10-18T17:51:12.622Z,12.93
2022-10-18T17:53:39.357Z,12.87
2022-10-18T17:56:09.949Z,12.84
2022-10-18T17:58:36.693Z,12.84
2022-10-18T18:01:21.039Z,12.88
2022-10-18T18:03:50.891Z,12.88
2022-10-18T18:06:20.376Z,12.73
2022-10-18T18:08:48.244Z,12.73
2022-10-18T18:11:16.180Z,12.68
2022-10-18T18:13:43.228Z,12.53
2022-10-18T18:16:15.821Z,12.53
2022-10-18T18:18:43.287Z,12.43
2022-10-18T18:21:10.886Z,12.38
2022-10-18T18:23:40.125Z,12.13
2022-10-18T18:26:07.173Z,12.09
2022-10-18T18:28:36.178Z,11.96
2022-10-18T18:31:08.132Z,11.87
2022-10-18T18:33:36.550Z,11.77
2022-10-18T18:36:04.985Z,11.63
2022-10-18T18:38:32.539Z,11.60
2022-10-18T18:41:12.945Z,11.50
2022-10-18T18:43:42.648Z,11.47
2022-10-18T18:46:10.467Z,11.42
2022-10-18T18:48:37.313Z,11.37
2022-10-18T18:51:06.297Z,11.27
2022-10-18T18:53:33.107Z,11.17
2022-10-18T18:56:07.728Z,11.08
2022-10-18T18:58:37.988Z,10.97
2022-10-18T19:01:17.324Z,10.87
2022-10-18T19:03:48.750Z,10.66
2022-10-18T19:06:35.551Z,10.59
2022-10-18T19:09:04.946Z,10.52
2022-10-18T19:11:35.711Z,10.41
2022-10-18T19:14:04.114Z,10.28
2022-10-18T19:16:40.771Z,10.16
2022-10-18T19:19:12.139Z,9.91
2022-10-18T19:21:46.623Z,9.71
2022-10-18T19:24:13.404Z,9.65
2022-10-18T19:26:47.482Z,9.51
2022-10-18T19:29:16.989Z,9.31
2022-10-18T19:31:44.867Z,9.08
2022-10-18T19:34:13.961Z,9.06
2022-10-18T19:36:42.497Z,9.04
2022-10-18T19:39:15.081Z,9.07
2022-10-18T19:41:42.162Z,9.05
2022-10-18T19:44:11.895Z,9.05
2022-10-18T19:46:38.653Z,8.88
2022-10-18T19:49:05.350Z,8.93
2022-10-18T19:51:32.049Z,8.91
2022-10-18T19:53:58.938Z,8.94
2022-10-18T19:56:26.931Z,8.93
2022-10-18T19:58:54.296Z,8.95
2022-10-18T20:01:21.204Z,8.91
2022-10-18T20:03:49.569Z,8.97
2022-10-18T20:06:16.718Z,8.91
2022-10-18T20:08:43.728Z,8.70
2022-10-18T20:11:16.129Z,8.77
2022-10-18T20:13:43.144Z,8.63
2022-10-18T20:16:12.695Z,8.49
2022-10-18T20:18:39.572Z,8.24
2022-10-18T20:21:10.632Z,8.26
2022-10-18T20:23:38.924Z,8.15
2022-10-18T20:26:18.259Z,8.14
2022-10-18T20:28:56.971Z,8.12
2022-10-18T20:31:29.264Z,8.14
2022-10-18T20:33:57.986Z,8.20
2022-10-18T20:36:25.530Z,7.93
2022-10-18T20:38:54.367Z,7.96
2022-10-18T20:41:32.594Z,7.89
2022-10-18T20:44:01.782Z,7.99
2022-10-18T20:46:33.670Z,7.80
2022-10-18T20:49:01.000Z,7.70
2022-10-18T20:51:28.254Z,7.64
2022-10-18T20:53:55.276Z,7.41
2022-10-18T20:56:25.288Z,7.40
2022-10-18T20:58:53.995Z,7.47
2022-10-18T21:01:23.123Z,7.25
2022-10-18T21:03:51.811Z,7.30
2022-10-18T21:06:27.528Z,7.30
2022-10-18T21:08:58.991Z,7.15
2022-10-18T21:11:27.809Z,7.20
2022-10-18T21:13:57.622Z,7.30
2022-10-18T21:16:24.621Z,7.30
2022-10-18T21:18:51.284Z,7.25
2022-10-18T21:21:24.057Z,7.28
2022-10-18T21:23:52.113Z,7.29
2022-10-18T21:26:24.100Z,7.21
2022-10-18T21:28:52.291Z,7.17
2022-10-18T21:31:22.265Z,7.10
2022-10-18T21:33:56.346Z,7.01
2022-10-18T21:36:23.862Z,7.00
2022-10-18T21:38:51.251Z,7.06
2022-10-18T21:41:19.763Z,7.13
2022-10-18T21:43:51.317Z,7.18
2022-10-18T21:46:20.427Z,7.13
2022-10-18T21:48:49.789Z,7.05
2022-10-18T21:51:17.897Z,7.14
2022-10-18T21:53:46.708Z,7.18
2022-10-18T21:56:22.109Z,7.18
2022-10-18T21:58:49.040Z,7.09
2022-10-18T22:01:18.762Z,7.05
2022-10-18T22:03:47.700Z,7.02
2022-10-18T22:06:16.705Z,6.87
2022-10-18T22:08:50.289Z,6.70
2022-10-18T22:11:18.675Z,6.82
2022-10-18T22:13:46.548Z,6.76
2022-10-18T22:16:15.004Z,6.81
2022-10-18T22:18:42.645Z,6.77
2022-10-18T22:21:11.154Z,6.82
2022-10-18T22:23:43.260Z,6.64
2022-10-18T22:26:13.098Z,6.22
2022-10-18T22:28:41.370Z,6.11
2022-10-18T22:31:15.629Z,5.89
2022-10-18T22:33:42.334Z,5.78
2022-10-18T22:36:09.261Z,5.67
2022-10-18T22:38:36.518Z,5.59
2022-10-18T22:41:07.907Z,5.34
2022-10-18T22:43:36.341Z,5.48
2022-10-18T22:46:08.791Z,5.41
2022-10-18T22:48:36.095Z,5.51
2022-10-18T22:51:03.188Z,5.58
2022-10-18T22:53:30.328Z,5.66
2022-10-18T22:55:57.386Z,5.69
2022-10-18T22:58:24.405Z,5.78
2022-10-18T23:00:51.540Z,5.83
2022-10-18T23:03:19.303Z,5.61
2022-10-18T23:05:47.025Z,5.58
2022-10-18T23:08:14.467Z,5.57
2022-10-18T23:10:42.304Z,5.41
2022-10-18T23:13:10.874Z,5.47
2022-10-18T23:15:39.138Z,5.43
2022-10-18T23:18:06.294Z,5.41
2022-10-18T23:20:33.109Z,5.30
2022-10-18T23:22:59.757Z,5.38
2022-10-18T23:25:27.263Z,5.33
2022-10-18T23:27:54.458Z,5.35
2022-10-18T23:30:21.218Z,5.14
2022-10-18T23:32:48.040Z,5.26
2022-10-18T23:35:14.781Z,5.23
2022-10-18T23:37:41.436Z,5.20
2022-10-18T23:40:09.246Z,5.13
2022-10-18T23:42:35.994Z,5.13
2022-10-18T23:45:02.759Z,5.15
2022-10-18T23:47:29.699Z,5.10
2022-10-18T23:49:58.913Z,5.03
2022-10-18T23:52:25.548Z,4.92
2022-10-18T23:54:52.209Z,4.77
2022-10-18T23:57:18.847Z,4.79
2022-10-18T23:59:45.715Z,4.77
